createdAt,value
2019-03-23T00:01:55.332Z,32.10
2019-03-23T00:04:25.498Z,32.43
2019-03-23T00:06:55.270Z,32.17
2019-03-23T00:09:24.967Z,31.53
2019-03-23T00:11:54.604Z,32.90
2019-03-23T00:14:24.265Z,29.00
2019-03-23T00:16:53.922Z,31.47
2019-03-23T00:19:23.599Z,31.03
2019-03-23T00:21:53.272Z,32.17
2019-03-23T00:24:22.943Z,30.83
2019-03-23T00:26:52.576Z,31.93
2019-03-23T00:29:22.268Z,31.53
2019-03-23T00:31:51.900Z,27.23
2019-03-23T00:34:21.594Z,28.83
2019-03-23T00:36:51.218Z,31.83
2019-03-23T00:39:20.872Z,32.07
2019-03-23T00:41:50.513Z,29.83
2019-03-23T00:44:20.193Z,28.60
2019-03-23T00:46:49.880Z,27.93
2019-03-23T00:49:19.606Z,32.43
2019-03-23T00:51:49.589Z,29.53
2019-03-23T00:54:19.368Z,29.40
2019-03-23T00:56:49.170Z,28.10
2019-03-23T00:59:18.840Z,26.93
2019-03-23T01:01:48.544Z,29.60
2019-03-23T01:04:18.204Z,29.27
2019-03-23T01:06:52.289Z,28.93
2019-03-23T01:09:19.657Z,29.57
2019-03-23T01:11:49.523Z,29.80
2019-03-23T01:14:19.189Z,28.90
2019-03-23T01:16:48.833Z,29.20
2019-03-23T01:19:18.632Z,32.50
2019-03-23T01:21:48.273Z,26.50
2019-03-23T01:24:18.007Z,27.70
2019-03-23T01:26:47.642Z,29.43
2019-03-23T01:29:18.393Z,25.90
2019-03-23T01:31:48.031Z,30.50
2019-03-23T01:34:17.693Z,28.90
2019-03-23T01:36:47.322Z,31.63
2019-03-23T01:39:17.056Z,26.67
2019-03-23T01:41:46.684Z,27.97
2019-03-23T01:44:16.443Z,31.97
2019-03-23T01:46:46.074Z,29.70
2019-03-23T01:49:15.837Z,29.20
2019-03-23T01:51:45.471Z,29.77
2019-03-23T01:54:15.237Z,27.97
2019-03-23T01:56:44.973Z,26.63
2019-03-23T01:59:14.649Z,30.17
2019-03-23T02:01:44.292Z,27.80
2019-03-23T02:04:13.944Z,27.97
2019-03-23T02:06:43.674Z,27.67
2019-03-23T02:09:13.346Z,29.33
2019-03-23T02:11:42.992Z,30.07
2019-03-23T02:14:12.648Z,29.03
2019-03-23T02:16:42.332Z,25.73
2019-03-23T02:19:12.408Z,26.77
2019-03-23T02:21:42.049Z,25.53
2019-03-23T02:24:11.643Z,28.63
2019-03-23T02:26:41.350Z,27.53
2019-03-23T02:29:11.035Z,28.00
2019-03-23T02:31:40.724Z,25.23
2019-03-23T02:34:10.416Z,27.93
2019-03-23T02:36:40.056Z,27.47
2019-03-23T02:39:09.726Z,27.70
2019-03-23T02:41:39.446Z,25.63
2019-03-23T02:44:09.032Z,24.60
2019-03-23T02:46:38.923Z,24.37
2019-03-23T02:49:08.622Z,24.63
2019-03-23T02:51:39.848Z,25.77
2019-03-23T02:54:09.529Z,25.00
2019-03-23T02:56:39.153Z,24.13
2019-03-23T02:59:08.821Z,23.37
2019-03-23T03:01:38.624Z,28.30
2019-03-23T03:04:08.280Z,26.10
2019-03-23T03:06:37.929Z,26.83
2019-03-23T03:09:08.213Z,28.77
2019-03-23T03:11:37.859Z,25.30
2019-03-23T03:14:07.516Z,26.30
2019-03-23T03:16:37.152Z,26.03
2019-03-23T03:19:06.834Z,31.73
2019-03-23T03:21:36.531Z,24.80
2019-03-23T03:24:06.222Z,28.70
2019-03-23T03:26:35.966Z,23.97
2019-03-23T03:29:05.659Z,23.47
2019-03-23T03:31:35.491Z,25.13
2019-03-23T03:34:05.331Z,23.33
2019-03-23T03:36:34.969Z,26.57
2019-03-23T03:39:05.748Z,23.67
2019-03-23T03:41:35.386Z,23.73
2019-03-23T03:44:05.229Z,25.57
2019-03-23T03:46:34.874Z,24.83
2019-03-23T03:49:12.292Z,27.63
2019-03-23T03:51:35.926Z,23.23
2019-03-23T03:54:06.013Z,23.77
2019-03-23T03:56:35.821Z,22.63
2019-03-23T03:59:05.483Z,22.33
2019-03-23T04:01:35.141Z,22.63
2019-03-23T04:04:04.828Z,25.00
2019-03-23T04:06:34.884Z,23.50
2019-03-23T04:09:06.200Z,26.33
2019-03-23T04:11:35.903Z,20.90
2019-03-23T04:14:05.564Z,21.17
2019-03-23T04:16:35.245Z,20.83
2019-03-23T04:19:05.051Z,23.50
2019-03-23T04:21:34.797Z,21.90
2019-03-23T04:24:04.503Z,21.37
2019-03-23T04:26:34.188Z,20.73
2019-03-23T04:29:04.278Z,20.00
2019-03-23T04:31:33.919Z,19.73
2019-03-23T04:34:03.590Z,19.97
2019-03-23T04:36:33.238Z,19.60
2019-03-23T04:39:02.975Z,19.83
2019-03-23T04:41:32.621Z,23.17
2019-03-23T04:44:02.394Z,20.17
2019-03-23T04:46:32.085Z,19.27
2019-03-23T04:49:01.752Z,21.63
2019-03-23T04:51:31.490Z,19.60
2019-03-23T04:54:01.425Z,21.20
2019-03-23T04:56:31.103Z,20.53
2019-03-23T04:59:00.881Z,20.40
2019-03-23T05:01:30.552Z,20.97
2019-03-23T05:04:00.242Z,18.30
2019-03-23T05:06:29.879Z,20.87
2019-03-23T05:08:59.595Z,39.37
2019-03-23T05:11:29.277Z,28.93
2019-03-23T05:13:58.941Z,32.23
2019-03-23T05:16:28.593Z,27.67
2019-03-23T05:18:58.318Z,26.47
2019-03-23T05:21:28.031Z,27.13
2019-03-23T05:23:57.762Z,29.80
2019-03-23T05:26:27.386Z,21.60
2019-03-23T05:28:57.058Z,20.10
2019-03-23T05:31:26.701Z,22.53
2019-03-23T05:33:56.485Z,21.60
2019-03-23T05:36:26.234Z,20.77
2019-03-23T05:38:55.865Z,22.93
2019-03-23T05:41:25.537Z,20.87
2019-03-23T05:43:55.218Z,23.50
2019-03-23T05:46:24.857Z,19.87
2019-03-23T05:48:54.534Z,23.17
2019-03-23T05:51:24.201Z,21.23
2019-03-23T05:53:53.915Z,23.43
2019-03-23T05:56:23.956Z,21.93
2019-03-23T05:58:53.738Z,25.00
2019-03-23T06:01:23.424Z,27.97
2019-03-23T06:03:53.067Z,27.13
2019-03-23T06:06:22.783Z,30.50
2019-03-23T06:08:55.391Z,25.03
2019-03-23T06:11:23.842Z,28.43
2019-03-23T06:13:53.585Z,28.90
2019-03-23T06:16:23.821Z,49.43
2019-03-23T06:18:53.584Z,45.77
2019-03-23T06:21:23.331Z,41.23
2019-03-23T06:23:52.989Z,36.10
2019-03-23T06:26:22.672Z,35.23
2019-03-23T06:28:52.373Z,38.57
2019-03-23T06:31:22.053Z,37.07
2019-03-23T06:33:51.884Z,43.47
2019-03-23T06:36:21.599Z,45.10
2019-03-23T06:38:51.246Z,36.00
2019-03-23T06:41:21.225Z,32.70
2019-03-23T06:43:51.438Z,28.60
2019-03-23T06:46:21.162Z,27.93
2019-03-23T06:48:51.170Z,22.50
2019-03-23T06:51:22.652Z,20.80
2019-03-23T06:53:52.538Z,19.20
2019-03-23T06:56:22.274Z,19.43
2019-03-23T06:58:51.947Z,22.00
2019-03-23T07:01:21.806Z,20.47
2019-03-23T07:03:51.443Z,21.00
2019-03-23T07:06:21.320Z,21.23
2019-03-23T07:08:51.050Z,23.07
2019-03-23T07:11:21.121Z,21.93
2019-03-23T07:13:50.808Z,22.43
2019-03-23T07:16:20.731Z,21.17
2019-03-23T07:18:50.433Z,21.30
2019-03-23T07:21:20.110Z,21.93
2019-03-23T07:23:54.943Z,20.43
2019-03-23T07:29:31.591Z,22.23
2019-03-23T07:32:05.733Z,18.20
2019-03-23T07:34:44.870Z,20.53
2019-03-23T07:37:13.276Z,18.77
2019-03-23T07:39:45.014Z,18.53
2019-03-23T07:42:15.035Z,19.00
2019-03-23T07:44:47.415Z,21.03
2019-03-23T07:47:20.222Z,19.40
2019-03-23T07:49:50.214Z,19.70
2019-03-23T07:52:19.886Z,19.77
2019-03-23T07:54:49.753Z,19.27
2019-03-23T07:57:19.498Z,18.30
2019-03-23T07:59:49.349Z,19.57
2019-03-23T08:02:19.424Z,20.40
2019-03-23T08:04:49.087Z,21.93
2019-03-23T08:07:18.756Z,19.40
2019-03-23T08:09:48.447Z,21.03
2019-03-23T08:12:18.088Z,20.87
2019-03-23T08:14:47.942Z,18.17
2019-03-23T08:17:17.663Z,18.60
2019-03-23T08:19:47.457Z,23.33
2019-03-23T08:22:17.220Z,21.37
2019-03-23T08:24:46.927Z,22.70
2019-03-23T08:27:16.603Z,25.50
2019-03-23T08:29:46.237Z,22.93
2019-03-23T08:32:15.895Z,22.53
2019-03-23T08:34:45.557Z,32.20
2019-03-23T08:37:15.223Z,26.33
2019-03-23T08:39:48.642Z,25.40
2019-03-23T08:42:16.341Z,28.47
2019-03-23T08:44:46.015Z,31.17
2019-03-23T08:47:15.668Z,26.00
2019-03-23T08:49:45.349Z,32.80
2019-03-23T08:52:15.015Z,34.13
2019-03-23T08:54:44.641Z,30.00
2019-03-23T08:57:14.732Z,35.67
2019-03-23T08:59:44.431Z,33.50
2019-03-23T09:02:14.131Z,35.10
2019-03-23T09:04:44.640Z,33.37
2019-03-23T09:07:14.312Z,32.30
2019-03-23T09:09:43.940Z,36.30
2019-03-23T09:12:13.868Z,32.20
2019-03-23T09:14:43.507Z,36.13
2019-03-23T09:17:13.202Z,36.50
2019-03-23T09:19:42.991Z,33.90
2019-03-23T09:22:12.701Z,37.57
2019-03-23T09:24:42.460Z,34.30
2019-03-23T09:27:12.708Z,33.90
2019-03-23T09:29:42.448Z,36.80
2019-03-23T09:32:12.128Z,39.27
2019-03-23T09:34:41.769Z,37.47
2019-03-23T09:37:11.620Z,37.50
2019-03-23T09:39:41.267Z,39.63
2019-03-23T09:42:11.026Z,41.33
2019-03-23T09:44:40.686Z,44.40
2019-03-23T09:47:10.384Z,40.53
2019-03-23T09:49:40.212Z,44.40
2019-03-23T09:52:10.012Z,45.50
2019-03-23T09:54:39.745Z,42.93
2019-03-23T09:57:09.404Z,45.17
2019-03-23T09:59:39.135Z,41.27
2019-03-23T10:02:09.058Z,40.77
2019-03-23T10:04:38.758Z,41.10
2019-03-23T10:07:08.426Z,42.20
2019-03-23T10:09:38.057Z,43.97
2019-03-23T10:12:07.719Z,43.67
2019-03-23T10:14:37.420Z,45.27
2019-03-23T10:17:07.202Z,43.73
2019-03-23T10:19:36.821Z,49.70
2019-03-23T10:22:06.496Z,48.13
2019-03-23T10:24:36.145Z,48.27
2019-03-23T10:27:05.837Z,50.03
2019-03-23T10:29:35.480Z,51.00
2019-03-23T10:32:05.204Z,44.90
2019-03-23T10:34:34.858Z,45.90
2019-03-23T10:37:04.539Z,48.30
2019-03-23T10:39:34.098Z,44.57
2019-03-23T10:42:03.789Z,53.57
2019-03-23T10:44:33.967Z,51.87
2019-03-23T10:47:03.774Z,55.03
2019-03-23T10:49:33.531Z,57.37
2019-03-23T10:52:03.204Z,57.53
2019-03-23T10:54:32.896Z,55.00
2019-03-23T10:57:02.590Z,55.53
2019-03-23T10:59:32.264Z,58.27
2019-03-23T11:02:01.935Z,58.70
2019-03-23T11:04:31.579Z,55.47
2019-03-23T11:07:01.257Z,53.33
2019-03-23T11:09:31.271Z,61.10
2019-03-23T11:12:01.044Z,53.83
2019-03-23T11:14:30.677Z,56.40
2019-03-23T11:17:00.349Z,53.80
2019-03-23T11:19:29.981Z,60.20
2019-03-23T11:21:59.678Z,60.63
2019-03-23T11:24:29.304Z,59.83
2019-03-23T11:26:58.978Z,60.23
2019-03-23T11:29:28.636Z,60.87
2019-03-23T11:31:58.305Z,63.10
2019-03-23T11:34:27.970Z,60.40
2019-03-23T11:36:57.733Z,63.43
2019-03-23T11:39:27.467Z,68.17
2019-03-23T11:41:57.206Z,68.63
2019-03-23T11:44:26.891Z,61.80
2019-03-23T11:46:56.566Z,68.80
2019-03-23T11:49:26.318Z,70.23
2019-03-23T11:51:56.059Z,75.83
2019-03-23T11:54:25.772Z,72.50
2019-03-23T11:56:55.679Z,76.23
2019-03-23T11:59:25.276Z,73.77
2019-03-23T12:01:54.996Z,75.87
2019-03-23T12:04:25.250Z,81.77
2019-03-23T12:06:55.648Z,74.87
2019-03-23T12:09:25.314Z,83.23
2019-03-23T12:11:54.986Z,81.90
2019-03-23T12:14:24.699Z,80.30
2019-03-23T12:16:54.442Z,79.47
2019-03-23T12:19:24.122Z,77.27
2019-03-23T12:21:53.991Z,79.60
2019-03-23T12:24:25.008Z,79.17
2019-03-23T12:26:54.767Z,81.08
2019-03-23T12:29:24.398Z,84.07
2019-03-23T12:31:54.073Z,85.13
2019-03-23T12:34:24.013Z,84.37
2019-03-23T12:36:53.796Z,87.40
2019-03-23T12:39:23.449Z,84.93
2019-03-23T12:41:53.217Z,89.30
2019-03-23T12:44:22.851Z,88.87
2019-03-23T12:46:53.056Z,87.47
2019-03-23T12:49:22.706Z,90.17
2019-03-23T12:51:52.372Z,91.40
2019-03-23T12:54:22.010Z,86.70
2019-03-23T12:56:51.748Z,88.80
2019-03-23T12:59:21.403Z,89.37
2019-03-23T13:01:51.057Z,87.90
2019-03-23T13:04:20.823Z,90.87
2019-03-23T13:06:50.539Z,85.83
2019-03-23T13:09:20.178Z,88.80
2019-03-23T13:11:50.312Z,90.73
2019-03-23T13:14:20.032Z,89.07
2019-03-23T13:16:49.656Z,92.17
2019-03-23T13:19:19.361Z,85.23
2019-03-23T13:21:49.061Z,92.30
2019-03-23T13:24:18.748Z,88.40
2019-03-23T13:26:48.464Z,91.53
2019-03-23T13:29:18.091Z,80.60
2019-03-23T13:31:47.751Z,84.17
2019-03-23T13:34:17.389Z,85.93
2019-03-23T13:36:47.247Z,84.10
2019-03-23T13:39:16.899Z,83.27
2019-03-23T13:41:50.120Z,91.67
2019-03-23T13:44:20.051Z,91.97
2019-03-23T13:46:49.680Z,84.87
2019-03-23T13:49:19.367Z,101.40
2019-03-23T13:51:49.069Z,86.87
2019-03-23T13:54:18.764Z,81.63
2019-03-23T13:56:48.459Z,80.60
2019-03-23T13:59:18.110Z,80.10
2019-03-23T14:01:47.750Z,82.80
2019-03-23T14:04:17.714Z,81.00
2019-03-23T14:06:47.359Z,82.33
2019-03-23T14:09:17.001Z,78.57
2019-03-23T14:11:54.653Z,80.43
2019-03-23T14:14:18.088Z,80.33
2019-03-23T14:16:47.721Z,72.13
2019-03-23T14:19:17.397Z,67.50
2019-03-23T14:21:47.070Z,68.23
2019-03-23T14:24:16.767Z,69.80
2019-03-23T14:26:46.392Z,64.23
2019-03-23T14:29:16.056Z,56.40
2019-03-23T14:31:45.955Z,54.07
2019-03-23T14:34:15.703Z,57.83
2019-03-23T14:36:45.510Z,61.17
2019-03-23T14:39:15.187Z,57.60
2019-03-23T14:41:44.853Z,62.47
2019-03-23T14:44:14.565Z,60.17
2019-03-23T14:46:47.065Z,60.00
2019-03-23T14:49:16.737Z,59.80
2019-03-23T14:51:46.745Z,57.63
2019-03-23T14:54:16.416Z,60.53
2019-03-23T14:56:46.050Z,60.27
2019-03-23T14:59:15.708Z,61.03
2019-03-23T15:01:45.272Z,60.90
2019-03-23T15:04:14.926Z,62.17
2019-03-23T15:06:45.906Z,66.23
2019-03-23T15:09:15.579Z,60.63
2019-03-23T15:11:45.211Z,60.27
2019-03-23T15:14:14.865Z,56.73
2019-03-23T15:16:44.503Z,58.20
2019-03-23T15:19:15.626Z,55.53
2019-03-23T15:21:45.758Z,50.47
2019-03-23T15:24:15.804Z,59.93
2019-03-23T15:26:45.679Z,55.70
2019-03-23T15:29:15.616Z,56.47
2019-03-23T15:31:45.364Z,59.13
2019-03-23T15:34:15.263Z,58.03
2019-03-23T15:36:45.614Z,53.73
2019-03-23T15:39:15.429Z,54.30
2019-03-23T15:41:45.742Z,54.30
2019-03-23T15:44:15.763Z,50.50
2019-03-23T15:46:45.445Z,53.37
2019-03-23T15:49:15.204Z,50.47
2019-03-23T15:51:45.017Z,51.63
2019-03-23T15:54:14.699Z,48.40
2019-03-23T15:56:44.351Z,49.30
2019-03-23T15:59:14.064Z,46.77
2019-03-23T16:01:43.735Z,49.63
2019-03-23T16:04:15.060Z,48.83
2019-03-23T16:06:44.700Z,51.93
2019-03-23T16:09:14.471Z,50.37
2019-03-23T16:11:44.135Z,50.20
2019-03-23T16:14:13.913Z,51.63
2019-03-23T16:16:43.850Z,51.23
2019-03-23T16:19:13.857Z,52.80
2019-03-23T16:21:43.635Z,48.60
2019-03-23T16:24:13.401Z,47.23
2019-03-23T16:26:43.035Z,47.73
2019-03-23T16:29:12.691Z,49.97
2019-03-23T16:31:42.762Z,49.97
2019-03-23T16:34:12.420Z,47.00
2019-03-23T16:36:42.190Z,51.30
2019-03-23T16:39:11.845Z,47.93
2019-03-23T16:41:41.541Z,49.57
2019-03-23T16:44:11.209Z,47.23
2019-03-23T16:46:40.840Z,52.97
2019-03-23T16:49:10.892Z,51.83
2019-03-23T16:51:40.645Z,49.77
2019-03-23T16:54:10.314Z,48.77
2019-03-23T16:56:39.938Z,44.97
2019-03-23T16:59:09.599Z,51.60
2019-03-23T17:01:39.446Z,51.33
2019-03-23T17:04:09.111Z,47.83
2019-03-23T17:06:46.236Z,57.33
2019-03-23T17:09:10.324Z,51.20
2019-03-23T17:11:39.982Z,56.00
2019-03-23T17:14:09.812Z,52.90
2019-03-23T17:16:39.514Z,54.47
2019-03-23T17:19:09.327Z,51.33
2019-03-23T17:21:39.023Z,53.47
2019-03-23T17:24:08.730Z,53.60
2019-03-23T17:26:38.441Z,51.87
2019-03-23T17:29:08.234Z,55.53
2019-03-23T17:31:38.100Z,52.17
2019-03-23T17:34:07.828Z,54.63
2019-03-23T17:36:37.641Z,52.73
2019-03-23T17:39:07.757Z,52.97
2019-03-23T17:41:37.477Z,51.93
2019-03-23T17:44:07.132Z,53.77
2019-03-23T17:46:36.951Z,54.93
2019-03-23T17:49:06.728Z,53.37
2019-03-23T17:51:36.489Z,58.83
2019-03-23T17:54:06.403Z,56.43
2019-03-23T17:56:36.232Z,53.27
2019-03-23T17:59:06.081Z,55.77
2019-03-23T18:01:51.887Z,56.80
2019-03-23T18:04:22.343Z,55.60
2019-03-23T18:06:52.011Z,56.10
2019-03-23T18:09:22.083Z,57.63
2019-03-23T18:11:51.734Z,54.33
2019-03-23T18:14:22.185Z,54.43
2019-03-23T18:16:51.966Z,52.13
2019-03-23T18:19:22.008Z,54.77
2019-03-23T18:21:52.005Z,55.77
2019-03-23T18:24:21.770Z,59.63
2019-03-23T18:26:51.762Z,55.77
2019-03-23T18:29:21.741Z,59.77
2019-03-23T18:31:51.402Z,58.93
2019-03-23T18:34:21.036Z,60.00
2019-03-23T18:36:51.599Z,58.23
2019-03-23T18:39:21.308Z,57.47
2019-03-23T18:41:51.004Z,56.33
2019-03-23T18:44:20.645Z,61.70
2019-03-23T18:46:50.356Z,61.50
2019-03-23T18:49:19.979Z,67.03
2019-03-23T18:51:49.640Z,60.77
2019-03-23T18:54:19.267Z,60.30
2019-03-23T18:56:48.930Z,62.87
2019-03-23T18:59:18.673Z,63.43
2019-03-23T19:01:48.458Z,69.40
2019-03-23T19:04:18.193Z,66.00
2019-03-23T19:06:48.248Z,69.17
2019-03-23T19:09:17.918Z,63.70
2019-03-23T19:11:47.518Z,65.10
2019-03-23T19:14:17.238Z,63.57
2019-03-23T19:16:46.945Z,67.23
2019-03-23T19:19:16.581Z,64.17
2019-03-23T19:21:46.356Z,67.60
2019-03-23T19:24:16.004Z,64.30
2019-03-23T19:26:45.777Z,67.33
2019-03-23T19:29:15.527Z,66.10
2019-03-23T19:31:45.197Z,66.23
2019-03-23T19:34:14.835Z,71.50
2019-03-23T19:36:44.496Z,68.70
2019-03-23T19:39:14.558Z,64.97
2019-03-23T19:41:44.364Z,65.13
2019-03-23T19:44:13.982Z,67.53
2019-03-23T19:46:43.709Z,70.60
2019-03-23T19:49:13.399Z,72.43
2019-03-23T19:51:43.148Z,71.53
2019-03-23T19:54:12.828Z,73.60
2019-03-23T19:56:42.503Z,77.33
2019-03-23T19:59:12.170Z,72.90
2019-03-23T20:01:41.999Z,71.43
2019-03-23T20:04:11.664Z,73.67
2019-03-23T20:06:41.349Z,76.30
2019-03-23T20:09:11.360Z,68.93
2019-03-23T20:11:41.043Z,80.70
2019-03-23T20:14:10.667Z,164.43
2019-03-23T20:16:40.345Z,79.50
2019-03-23T20:19:10.315Z,72.37
2019-03-23T20:21:40.409Z,90.40
2019-03-23T20:24:10.034Z,83.70
2019-03-23T20:26:39.723Z,77.87
2019-03-23T20:29:09.398Z,79.43
2019-03-23T20:31:39.644Z,77.93
2019-03-23T20:34:09.314Z,73.37
2019-03-23T20:36:38.985Z,81.37
2019-03-23T20:39:12.047Z,78.83
2019-03-23T20:41:41.772Z,79.87
2019-03-23T20:44:12.232Z,79.53
2019-03-23T20:46:41.916Z,81.27
2019-03-23T20:49:11.660Z,84.00
2019-03-23T20:51:43.235Z,84.70
2019-03-23T20:54:13.764Z,86.90
2019-03-23T20:56:43.549Z,76.77
2019-03-23T20:59:13.194Z,87.63
2019-03-23T21:01:44.687Z,87.93
2019-03-23T21:04:14.387Z,85.67
2019-03-23T21:06:44.396Z,87.33
2019-03-23T21:09:14.046Z,91.43
2019-03-23T21:11:43.708Z,92.00
2019-03-23T21:14:20.124Z,87.23
2019-03-23T21:16:45.363Z,89.23
2019-03-23T21:19:15.011Z,89.53
2019-03-23T21:21:44.661Z,88.93
2019-03-23T21:24:14.338Z,83.70
2019-03-23T21:26:47.079Z,75.70
2019-03-23T21:29:16.717Z,79.20
2019-03-23T21:31:46.491Z,85.50
2019-03-23T21:34:16.321Z,78.50
2019-03-23T21:36:46.065Z,79.17
2019-03-23T21:39:15.860Z,79.37
2019-03-23T21:41:45.581Z,75.17
2019-03-23T21:44:15.216Z,69.37
2019-03-23T21:46:44.880Z,65.93
2019-03-23T21:49:14.517Z,66.13
2019-03-23T21:51:44.501Z,74.70
2019-03-23T21:54:14.387Z,67.80
2019-03-23T21:56:44.079Z,68.20
2019-03-23T21:59:19.328Z,65.30
2019-03-23T22:01:49.269Z,61.87
2019-03-23T22:04:18.896Z,54.33
2019-03-23T22:06:48.558Z,57.17
2019-03-23T22:09:18.195Z,62.07
2019-03-23T22:11:47.897Z,55.40
2019-03-23T22:14:17.556Z,46.07
2019-03-23T22:16:47.573Z,49.47
2019-03-23T22:19:17.278Z,51.67
2019-03-23T22:21:46.954Z,45.17
2019-03-23T22:24:16.637Z,52.40
2019-03-23T22:26:46.336Z,50.57
2019-03-23T22:29:15.998Z,52.37
2019-03-23T22:31:45.663Z,50.20
2019-03-23T22:34:15.385Z,55.70
2019-03-23T22:36:45.046Z,51.87
2019-03-23T22:39:14.710Z,49.80
2019-03-23T22:41:44.445Z,49.73
2019-03-23T22:44:14.120Z,55.37
2019-03-23T22:46:43.759Z,49.83
2019-03-23T22:49:13.447Z,50.70
2019-03-23T22:51:43.004Z,54.13
2019-03-23T22:54:12.683Z,56.23
2019-03-23T22:56:42.321Z,49.53
2019-03-23T22:59:11.990Z,61.37
2019-03-23T23:01:41.989Z,53.17
2019-03-23T23:04:11.657Z,60.80
2019-03-23T23:06:41.286Z,77.27
2019-03-23T23:09:11.461Z,56.30
2019-03-23T23:11:41.171Z,68.90
2019-03-23T23:14:10.852Z,64.27
2019-03-23T23:16:40.553Z,62.23
2019-03-23T23:19:10.219Z,69.57
2019-03-23T23:21:39.897Z,69.37
2019-03-23T23:24:09.574Z,79.63
2019-03-23T23:26:39.599Z,86.27
2019-03-23T23:29:09.262Z,73.73
2019-03-23T23:31:38.937Z,80.57
2019-03-23T23:34:08.593Z,66.63
2019-03-23T23:36:38.244Z,90.10
2019-03-23T23:39:08.465Z,59.73
2019-03-23T23:41:38.083Z,60.57
2019-03-23T23:44:07.763Z,59.03
2019-03-23T23:46:37.402Z,54.63
2019-03-23T23:49:07.078Z,52.23
2019-03-23T23:51:37.403Z,54.00
2019-03-23T23:54:07.083Z,53.13
2019-03-23T23:56:36.740Z,52.80
2019-03-23T23:59:06.668Z,53.57
